Time;durP1;ratioP1;P1;durP2;ratioP2;P2;SDS_P1;SDS_P2;PMS_P1;PMS_P2;Temp;Humidity;BMP_temperature;BMP_pressure;BME280_temperature;BME280_humidity;BME280_pressure;Samples;Min_cycle;Max_cycle;Signal;HPM_P1;HPM_P2
2022/11/12 00:00:51;;;;;;;5.45;4.97;;;;;;;4.78;100.00;102655.66;6119572;23;20107;-72
2022/11/12 00:03:18;;;;;;;4.95;4.65;;;;;;;4.97;100.00;102695.63;6150171;23;20024;-73
2022/11/12 00:05:45;;;;;;;5.22;4.85;;;;;;;4.34;100.00;102588.75;6129981;23;20706;-72
2022/11/12 00:08:12;;;;;;;4.50;4.22;;;;;;;4.64;100.00;102661.69;6177089;23;20074;-72
2022/11/12 00:10:38;;;;;;;5.15;4.75;;;;;;;3.83;100.00;102509.72;6122169;23;20032;-73
2022/11/12 00:13:05;;;;;;;4.22;4.03;;;;;;;5.09;100.00;102740.75;6151195;23;20036;-73
2022/11/12 00:15:31;;;;;;;5.75;5.35;;;;;;;5.01;100.00;102735.50;6183514;23;20025;-72
2022/11/12 00:17:58;;;;;;;4.25;3.97;;;;;;;4.78;100.00;102706.81;6141110;23;20017;-73
2022/11/12 00:20:24;;;;;;;5.47;5.05;;;;;;;4.59;100.00;102691.13;6177475;23;20584;-72
2022/11/12 00:22:51;;;;;;;4.70;4.30;;;;;;;4.56;100.00;102687.63;6129106;23;20115;-72
2022/11/12 00:25:17;;;;;;;4.18;3.88;;;;;;;4.19;100.00;102644.13;6140156;23;20036;-73
2022/11/12 00:27:44;;;;;;;3.88;3.67;;;;;;;3.98;100.00;102616.28;6120561;23;20029;-73
2022/11/12 00:30:11;;;;;;;5.32;4.85;;;;;;;4.36;100.00;102703.13;6147564;23;20024;-72
2022/11/12 00:32:37;;;;;;;4.80;4.50;;;;;;;4.32;100.00;102696.19;6139808;23;20033;-73
2022/11/12 00:35:05;;;;;;;5.28;4.95;;;;;;;4.56;100.00;102737.91;6129714;23;20023;-72
2022/11/12 00:37:36;;;;;;;5.15;4.78;;;;;;;4.55;100.00;102736.19;6136294;23;20068;-73
2022/11/12 00:40:03;;;;;;;5.97;3.85;;;;;;;4.38;100.00;102722.19;6172727;23;20028;-73
2022/11/12 00:42:29;;;;;;;5.15;4.60;;;;;;;3.09;100.00;102509.22;6137521;23;20424;-73
2022/11/12 00:44:56;;;;;;;4.28;4.07;;;;;;;3.63;100.00;102600.47;6141530;23;20530;-73
2022/11/12 00:47:22;;;;;;;4.88;4.57;;;;;;;3.86;100.00;102670.75;6143515;23;20090;-72
2022/11/12 00:49:48;;;;;;;4.80;4.40;;;;;;;4.24;100.00;102706.50;6140656;23;20031;-73
2022/11/12 00:52:15;;;;;;;4.30;4.05;;;;;;;4.01;100.00;102677.78;6131280;23;20461;-74
2022/11/12 00:54:41;;;;;;;4.25;3.95;;;;;;;4.50;100.00;102752.63;6171134;23;20557;-73
2022/11/12 00:57:08;;;;;;;5.00;4.60;;;;;;;4.23;100.00;102711.69;6108518;23;20033;-73
2022/11/12 00:59:34;;;;;;;4.05;3.85;;;;;;;4.05;100.00;102692.53;6164775;23;20016;-74
2022/11/12 01:02:00;;;;;;;4.57;4.32;;;;;;;4.29;100.00;102740.31;6144613;23;20726;-73
2022/11/12 01:04:27;;;;;;;4.43;4.22;;;;;;;4.24;100.00;102735.09;6171721;23;20659;-73
2022/11/12 01:06:53;;;;;;;4.00;3.72;;;;;;;4.42;100.00;102741.28;6146012;23;20029;-72
2022/11/12 01:09:20;;;;;;;5.05;4.68;;;;;;;4.30;100.00;102721.28;6175066;23;20028;-72
2022/11/12 01:11:47;;;;;;;5.32;5.03;;;;;;;4.23;100.00;102697.00;6144964;23;20025;-72
2022/11/12 01:14:13;;;;;;;4.60;4.30;;;;;;;4.31;100.00;102697.91;6149932;23;20670;-73
2022/11/12 01:16:41;;;;;;;4.43;4.13;;;;;;;4.43;100.00;102704.91;6118522;23;20033;-72
2022/11/12 01:19:10;;;;;;;4.82;4.53;;;;;;;4.52;100.00;102722.28;6149225;23;20522;-72
2022/11/12 01:21:39;;;;;;;4.20;4.00;;;;;;;4.90;100.00;102790.13;6137764;23;20058;-73
2022/11/12 01:24:06;;;;;;;4.38;4.18;;;;;;;3.42;100.00;102527.63;6168669;23;20099;-72
2022/11/12 01:26:33;;;;;;;5.28;4.93;;;;;;;4.99;100.00;102795.38;6143589;23;20084;-73
2022/11/12 01:29:00;;;;;;;4.93;4.63;;;;;;;4.74;100.00;102765.75;6174615;23;20643;-73
2022/11/12 01:31:32;;;;;;;4.40;4.10;;;;;;;4.59;100.00;102726.63;6116424;23;20075;-73
2022/11/12 01:34:01;;;;;;;7.00;6.35;;;;;;;4.64;100.00;102724.94;6176886;23;20085;-73
2022/11/12 01:36:33;;;;;;;3.95;3.75;;;;;;;4.79;100.00;102753.66;6106887;23;20560;-73
2022/11/12 01:39:00;;;;;;;6.03;4.53;;;;;;;5.15;100.00;102792.81;6172732;23;20065;-72
2022/11/12 01:41:31;;;;;;;5.93;4.25;;;;;;;4.10;100.00;102644.06;6112605;23;20562;-72
2022/11/12 01:44:23;;;;;;;4.63;4.32;;;;;;;5.25;100.00;102812.84;6146498;23;20024;-73
2022/11/12 01:47:01;;;;;;;4.60;4.30;;;;;;;4.89;100.00;102740.66;6172800;23;20074;-73
2022/11/12 01:49:58;;;;;;;4.10;3.90;;;;;;;5.30;100.00;102799.84;6125862;23;20020;-73
2022/11/12 01:52:33;;;;;;;8.20;4.28;;;;;;;5.22;100.00;102783.31;6166577;23;20021;-73
2022/11/12 01:55:10;;;;;;;4.38;4.15;;;;;;;5.19;100.00;102790.25;6129949;23;20025;-74
2022/11/12 01:57:44;;;;;;;4.50;4.25;;;;;;;4.93;100.00;102748.50;6176735;23;20045;-74
2022/11/12 02:00:12;;;;;;;4.38;4.10;;;;;;;4.56;100.00;102695.44;6118197;23;20041;-73
2022/11/12 02:02:39;;;;;;;3.97;3.78;;;;;;;5.29;100.00;102813.69;6173723;23;20513;-74
2022/11/12 02:05:09;;;;;;;4.70;4.20;;;;;;;4.48;100.00;102687.59;6095060;23;20033;-73
2022/11/12 02:07:38;;;;;;;5.80;5.32;;;;;;;5.08;100.00;102781.53;6173904;23;20028;-74
2022/11/12 02:10:06;;;;;;;4.47;4.28;;;;;;;4.96;100.00;102758.91;6127127;23;20033;-74
2022/11/12 02:15:18;;;;;;;4.38;4.15;;;;;;;4.77;100.00;102762.28;6113052;23;20010;-73
2022/11/12 02:17:44;;;;;;;4.32;4.13;;;;;;;5.14;100.00;102804.09;6172020;23;20071;-73
2022/11/12 02:20:12;;;;;;;4.32;4.03;;;;;;;4.89;100.00;102772.78;6089103;23;20124;-73
2022/11/12 02:22:39;;;;;;;4.22;3.92;;;;;;;5.19;100.00;102807.59;6176155;23;20627;-74
2022/11/12 02:25:08;;;;;;;5.05;4.75;;;;;;;5.05;100.00;102797.13;6114496;23;20072;-73
2022/11/12 02:27:34;;;;;;;5.00;4.70;;;;;;;5.05;100.00;102789.34;6172678;23;20016;-74
2022/11/12 02:30:01;;;;;;;4.20;3.90;;;;;;;5.26;100.00;102809.38;6113462;23;20029;-73
2022/11/12 02:32:27;;;;;;;4.22;4.03;;;;;;;4.80;100.00;102733.69;6170625;23;20782;-74
2022/11/12 02:34:53;;;;;;;4.78;4.47;;;;;;;4.97;100.00;102763.28;6131915;23;20013;-73
2022/11/12 02:37:20;;;;;;;5.00;4.65;;;;;;;4.90;100.00;102748.47;6174220;23;20023;-74
2022/11/12 02:39:46;;;;;;;4.60;4.28;;;;;;;5.22;100.00;102807.59;6114895;23;20017;-73
2022/11/12 02:42:12;;;;;;;4.47;4.15;;;;;;;5.08;100.00;102799.75;6147801;23;20015;-74
2022/11/12 02:44:39;;;;;;;5.68;4.30;;;;;;;5.08;100.00;102830.09;6144625;23;20096;-74
2022/11/12 02:47:06;;;;;;;4.53;4.20;;;;;;;4.99;100.00;102768.47;6167470;23;20107;-73
2022/11/12 02:49:32;;;;;;;4.35;4.05;;;;;;;4.78;100.00;102718.06;6140936;23;20615;-74
2022/11/12 02:51:58;;;;;;;4.43;4.13;;;;;;;5.38;100.00;102821.56;6148499;23;20055;-73
2022/11/12 02:54:25;;;;;;;5.53;5.07;;;;;;;5.12;100.00;102778.06;6098835;23;20087;-74
2022/11/12 02:56:51;;;;;;;4.90;4.57;;;;;;;5.29;100.00;102778.16;6171298;23;20025;-74
2022/11/12 02:59:17;;;;;;;5.72;4.53;;;;;;;4.60;100.00;102666.00;6129980;23;20037;-74
2022/11/12 03:01:44;;;;;;;4.88;4.50;;;;;;;5.00;100.00;102758.06;6141499;23;20094;-74
2022/11/12 03:04:10;;;;;;;4.18;3.78;;;;;;;5.27;100.00;102805.03;6135411;23;20017;-73
2022/11/12 03:06:37;;;;;;;4.55;4.25;;;;;;;4.91;100.00;102746.75;6148290;23;20028;-73
2022/11/12 03:09:03;;;;;;;4.20;4.00;;;;;;;5.17;100.00;102791.97;6133563;23;20028;-73
2022/11/12 03:11:29;;;;;;;4.45;4.20;;;;;;;4.80;100.00;102750.16;6173836;23;20080;-72
2022/11/12 03:13:56;;;;;;;4.20;4.00;;;;;;;5.16;100.00;102794.56;6112877;23;20039;-73
2022/11/12 03:16:22;;;;;;;4.22;4.03;;;;;;;4.91;100.00;102759.75;6149385;23;20077;-72
2022/11/12 03:18:48;;;;;;;5.80;4.07;;;;;;;4.72;100.00;102722.41;6141054;23;20025;-73
2022/11/12 03:21:15;;;;;;;4.55;4.25;;;;;;;4.84;100.00;102742.41;6148824;23;20036;-73
2022/11/12 03:23:41;;;;;;;13.65;5.10;;;;;;;4.71;100.00;102716.31;6134690;23;20017;-73
2022/11/12 03:26:07;;;;;;;3.97;3.72;;;;;;;4.90;100.00;102753.69;6166315;23;20012;-72
2022/11/12 03:28:34;;;;;;;5.10;4.70;;;;;;;4.58;100.00;102709.31;6142704;23;20092;-73
2022/11/12 03:31:01;;;;;;;4.43;4.13;;;;;;;4.71;100.00;102720.63;6147574;23;20111;-73
2022/11/12 03:33:27;;;;;;;4.53;4.22;;;;;;;4.65;100.00;102721.50;6117580;23;20028;-72
2022/11/12 03:35:54;;;;;;;4.32;4.13;;;;;;;4.78;100.00;102733.69;6116449;23;20475;-73
2022/11/12 03:38:20;;;;;;;4.18;3.88;;;;;;;4.71;100.00;102725.84;6140420;23;20025;-73
2022/11/12 03:40:47;;;;;;;4.68;4.28;;;;;;;4.96;100.00;102768.47;6171275;23;20016;-72
2022/11/12 03:43:14;;;;;;;4.95;4.63;;;;;;;4.65;100.00;102721.50;6140798;23;20054;-72
2022/11/12 03:45:40;;;;;;;3.92;3.63;;;;;;;4.82;100.00;102763.19;6140586;23;20029;-73
2022/11/12 03:48:07;;;;;;;5.03;4.63;;;;;;;3.48;100.00;102540.66;6170404;23;20023;-73
2022/11/12 03:50:33;;;;;;;5.38;4.93;;;;;;;4.78;100.00;102796.13;6127321;23;20077;-73
2022/11/12 03:53:00;;;;;;;4.32;4.13;;;;;;;4.77;100.00;102762.28;6139150;23;20017;-73
2022/11/12 03:55:28;;;;;;;4.82;4.53;;;;;;;4.40;100.00;102720.47;6146973;23;20483;-72
2022/11/12 03:57:56;;;;;;;4.53;4.25;;;;;;;4.68;100.00;102757.91;6170251;23;20035;-72
2022/11/12 04:00:24;;;;;;;4.57;4.38;;;;;;;4.67;100.00;102771.78;6119620;23;20029;-73
2022/11/12 04:02:51;;;;;;;4.25;4.00;;;;;;;4.65;100.00;102760.50;6174520;23;20093;-72
2022/11/12 04:10:51;;;;;;;3.97;3.78;;;;;;;4.02;100.00;102687.31;6141147;23;20100;-73
2022/11/12 04:13:27;;;;;;;8.38;4.57;;;;;;;4.07;100.00;102705.53;6172754;23;20078;-74
2022/11/12 04:21:54;;;;;;;3.97;3.78;;;;;;;4.31;100.00;102757.69;6110304;23;20264;-73
2022/11/12 04:27:23;;;;;;;4.63;4.32;;;;;;;4.38;100.00;102758.59;6129078;23;20086;-74
2022/11/12 04:32:39;;;;;;;3.90;3.60;;;;;;;4.08;100.00;102710.75;6131363;23;20028;-74
2022/11/12 04:35:07;;;;;;;4.68;4.28;;;;;;;4.12;100.00;102709.03;6163944;23;20032;-72
2022/11/12 04:37:44;;;;;;;5.50;5.03;;;;;;;4.38;100.00;102756.84;6120523;23;20020;-73
2022/11/12 04:45:57;;;;;;;4.60;4.40;;;;;;;4.17;100.00;102749.78;6181537;23;20024;-73
2022/11/12 04:48:24;;;;;;;4.60;4.38;;;;;;;4.15;100.00;102748.91;6133063;23;20017;-72
2022/11/12 04:50:57;;;;;;;4.50;4.20;;;;;;;4.05;100.00;102748.81;6171844;23;20020;-73
2022/11/12 04:53:24;;;;;;;4.50;4.07;;;;;;;3.71;100.00;102687.09;6108986;23;20087;-74
2022/11/12 04:55:52;;;;;;;4.10;3.83;;;;;;;3.82;100.00;102715.72;6170650;23;20101;-74
2022/11/12 04:58:19;;;;;;;4.75;4.35;;;;;;;4.11;100.00;102759.25;6130094;23;20021;-73
2022/11/12 05:00:46;;;;;;;7.13;4.32;;;;;;;2.60;100.00;102480.25;6167930;23;20021;-73
2022/11/12 05:03:12;;;;;;;4.53;4.22;;;;;;;4.07;100.00;102721.09;6116654;23;20096;-73
2022/11/12 05:05:39;;;;;;;4.78;4.47;;;;;;;3.90;100.00;102705.41;6171493;23;20037;-73
2022/11/12 05:08:05;;;;;;;4.53;4.30;;;;;;;3.94;100.00;102721.03;6117246;23;20033;-72
2022/11/12 05:10:32;;;;;;;4.30;4.10;;;;;;;3.53;100.00;102660.97;6139820;23;20021;-73
2022/11/12 05:12:58;;;;;;;3.85;3.65;;;;;;;3.20;100.00;102602.69;6117409;23;20079;-72
2022/11/12 05:15:25;;;;;;;4.10;3.80;;;;;;;3.94;100.00;102735.75;6169235;23;20033;-72
2022/11/12 05:17:51;;;;;;;3.97;3.70;;;;;;;3.97;100.00;102736.66;6139416;23;20043;-72
2022/11/12 05:20:18;;;;;;;5.28;4.82;;;;;;;3.62;100.00;102680.94;6172491;23;20053;-72
2022/11/12 05:22:44;;;;;;;4.75;4.45;;;;;;;4.05;100.00;102733.22;6146133;23;20078;-72
2022/11/12 05:25:30;;;;;;;4.15;3.95;;;;;;;3.67;100.00;102659.34;6123295;23;20024;-72
2022/11/12 05:27:57;;;;;;;4.32;4.13;;;;;;;3.28;100.00;102587.22;6177473;23;20036;-72
2022/11/12 05:30:23;;;;;;;4.03;3.78;;;;;;;3.99;100.00;102702.91;6112527;23;20686;-72
2022/11/12 05:32:50;;;;;;;5.05;4.65;;;;;;;3.51;100.00;102641.91;6174341;23;20098;-73
2022/11/12 05:35:16;;;;;;;4.25;3.95;;;;;;;3.57;100.00;102650.63;6111857;23;20269;-72
2022/11/12 05:37:42;;;;;;;4.25;3.95;;;;;;;3.88;100.00;102710.59;6176093;23;20017;-72
2022/11/12 05:40:09;;;;;;;4.03;3.83;;;;;;;4.00;100.00;102746.19;6143303;23;20094;-73
2022/11/12 05:42:36;;;;;;;4.05;3.85;;;;;;;3.52;100.00;102662.69;6178542;23;20049;-72
2022/11/12 05:45:02;;;;;;;3.95;3.75;;;;;;;3.34;100.00;102631.38;6115309;23;20078;-74
2022/11/12 05:47:29;;;;;;;4.47;4.20;;;;;;;3.87;100.00;102728.75;6168373;23;20026;-72
2022/11/12 05:49:55;;;;;;;4.20;3.90;;;;;;;2.98;100.00;102584.34;6146510;23;20020;-72
2022/11/12 05:52:22;;;;;;;4.53;4.13;;;;;;;3.81;100.00;102742.56;6138208;23;20053;-74
2022/11/12 05:54:48;;;;;;;4.28;4.07;;;;;;;3.22;100.00;102637.31;6176847;23;20036;-72
2022/11/12 05:57:15;;;;;;;4.20;4.00;;;;;;;3.07;100.00;102606.91;6121041;23;20009;-73
2022/11/12 05:59:41;;;;;;;4.25;4.03;;;;;;;3.02;100.00;102603.41;6171568;23;20463;-75
2022/11/12 06:02:07;;;;;;;4.03;3.80;;;;;;;3.32;100.00;102661.63;6113017;23;20473;-72
2022/11/12 06:04:34;;;;;;;4.07;3.88;;;;;;;3.47;100.00;102694.63;6149195;23;20021;-72
2022/11/12 06:07:02;;;;;;;4.30;4.10;;;;;;;3.67;100.00;102739.84;6143504;23;20100;-73
2022/11/12 06:09:29;;;;;;;4.20;3.92;;;;;;;3.66;100.00;102740.69;6110204;23;20147;-75
2022/11/12 06:11:55;;;;;;;4.80;4.40;;;;;;;3.34;100.00;102685.88;6141793;23;20518;-74
2022/11/12 06:14:22;;;;;;;4.50;4.20;;;;;;;2.83;100.00;102598.88;6142733;23;20087;-75
2022/11/12 06:16:48;;;;;;;4.30;4.10;;;;;;;3.56;100.00;102729.34;6161309;23;20009;-74
2022/11/12 06:19:15;;;;;;;3.95;3.72;;;;;;;3.13;100.00;102660.59;6116655;23;20032;-74
2022/11/12 06:21:41;;;;;;;4.20;4.00;;;;;;;3.14;100.00;102667.50;6175875;23;20461;-74
2022/11/12 06:24:08;;;;;;;4.13;3.92;;;;;;;3.37;100.00;102702.34;6112564;23;20074;-73
2022/11/12 06:26:36;;;;;;;6.35;4.25;;;;;;;3.32;100.00;102687.59;6171910;23;20392;-74
2022/11/12 06:29:03;;;;;;;3.80;3.60;;;;;;;3.34;100.00;102678.09;6144619;23;20029;-74
2022/11/12 06:31:29;;;;;;;4.53;4.20;;;;;;;3.56;100.00;102715.50;6145253;23;20016;-74
2022/11/12 06:33:55;;;;;;;4.28;4.07;;;;;;;3.03;100.00;102625.91;6114087;23;20028;-74
2022/11/12 06:36:22;;;;;;;4.15;3.95;;;;;;;3.32;100.00;102682.41;6167756;23;20029;-74
2022/11/12 06:38:48;;;;;;;4.13;3.70;;;;;;;3.51;100.00;102718.06;6090329;23;20017;-73
2022/11/12 06:41:15;;;;;;;4.40;4.07;;;;;;;3.46;100.00;102714.53;6166273;23;20040;-74
2022/11/12 06:43:41;;;;;;;3.95;3.75;;;;;;;3.38;100.00;102711.00;6112863;23;20064;-74
2022/11/12 06:46:13;;;;;;;3.90;3.70;;;;;;;3.75;100.00;102791.88;6171205;23;20077;-74
2022/11/12 06:48:40;;;;;;;3.78;3.58;;;;;;;3.80;100.00;102783.22;6135875;23;20141;-74
2022/11/12 06:51:14;;;;;;;5.65;4.97;;;;;;;3.79;100.00;102791.03;6143223;23;20566;-74
2022/11/12 06:53:40;;;;;;;3.70;3.50;;;;;;;3.78;100.00;102792.75;6141528;23;20032;-74
2022/11/12 06:56:07;;;;;;;3.83;3.63;;;;;;;3.78;100.00;102795.34;6138646;23;20034;-74
2022/11/12 06:58:34;;;;;;;4.53;4.13;;;;;;;3.35;100.00;102736.94;6163189;23;20032;-74
2022/11/12 07:01:12;;;;;;;5.32;4.50;;;;;;;3.27;100.00;102721.28;6089539;23;20100;-74
2022/11/12 07:03:40;;;;;;;6.38;4.18;;;;;;;3.81;100.00;102812.69;6164596;23;20490;-76
2022/11/12 07:06:13;;;;;;;3.92;3.72;;;;;;;3.82;100.00;102845.59;6128883;23;20017;-75
2022/11/12 07:08:40;;;;;;;13.15;4.05;;;;;;;3.84;100.00;102822.25;6176208;23;20415;-75
2022/11/12 07:11:07;;;;;;;4.40;4.10;;;;;;;3.52;100.00;102779.50;6143463;23;20086;-75
2022/11/12 07:13:34;;;;;;;4.40;4.10;;;;;;;3.02;100.00;102688.13;6170076;23;20231;-76
2022/11/12 07:16:02;;;;;;;5.18;4.88;;;;;;;3.75;100.00;102799.66;6120615;23;20030;-76
2022/11/12 07:18:29;;;;;;;4.55;4.25;;;;;;;3.93;100.00;102809.31;6175253;23;20345;-75
2022/11/12 07:20:58;;;;;;;4.22;4.03;;;;;;;3.98;100.00;102810.25;6116804;23;20037;-75
2022/11/12 07:23:25;;;;;;;4.53;4.28;;;;;;;3.74;100.00;102785.78;6165628;23;20020;-76
2022/11/12 07:26:19;;;;;;;4.40;4.13;;;;;;;4.09;100.00;102815.53;6141290;23;20028;-76
2022/11/12 07:28:47;;;;;;;4.53;4.22;;;;;;;4.13;100.00;102815.59;6137449;23;20108;-74
2022/11/12 07:31:15;;;;;;;5.80;4.85;;;;;;;3.88;100.00;102766.88;6122367;23;20045;-74
2022/11/12 07:33:42;;;;;;;5.05;4.75;;;;;;;3.24;100.00;102655.50;6172407;23;20557;-75
2022/11/12 07:36:11;;;;;;;4.43;4.22;;;;;;;4.18;100.00;102813.88;6141245;23;20025;-75
2022/11/12 07:38:40;;;;;;;5.13;4.82;;;;;;;3.85;100.00;102749.53;6153141;23;20034;-74
2022/11/12 07:41:21;;;;;;;5.32;4.85;;;;;;;4.15;100.00;102787.00;6124909;23;20024;-76
2022/11/12 07:43:50;;;;;;;8.68;3.92;;;;;;;4.35;100.00;102818.34;6149653;23;20024;-77
2022/11/12 07:46:22;;;;;;;4.25;4.05;;;;;;;4.40;100.00;102817.53;6122804;23;20025;-76
2022/11/12 07:48:48;;;;;;;4.30;3.97;;;;;;;4.49;100.00;102836.66;6168919;23;20028;-74
2022/11/12 07:51:17;;;;;;;8.02;4.95;;;;;;;4.51;100.00;102811.53;6148972;23;20029;-75
2022/11/12 07:53:44;;;;;;;5.15;4.63;;;;;;;4.30;100.00;102762.88;6174889;23;20712;-76
2022/11/12 07:56:16;;;;;;;4.50;4.20;;;;;;;4.03;100.00;102701.16;6147867;23;20075;-75
2022/11/12 07:58:43;;;;;;;4.00;3.80;;;;;;;4.51;100.00;102767.34;6145271;23;20025;-75
2022/11/12 08:01:33;;;;;;;5.07;4.78;;;;;;;4.89;100.00;102814.41;6119919;23;20002;-75
2022/11/12 08:04:01;;;;;;;4.57;4.28;;;;;;;4.98;100.00;102814.44;6144954;23;20054;-76
2022/11/12 08:06:29;;;;;;;3.85;3.65;;;;;;;5.09;100.00;102796.28;6172703;23;20028;-76
2022/11/12 08:08:56;;;;;;;4.85;4.55;;;;;;;4.74;100.00;102731.06;6147199;23;20025;-74
2022/11/12 08:11:23;;;;;;;4.75;4.35;;;;;;;5.30;100.00;102807.66;6149367;23;20171;-74
2022/11/12 08:13:50;;;;;;;7.70;4.10;;;;;;;5.31;100.00;102786.84;6175760;23;20025;-74
2022/11/12 08:16:16;;;;;;;5.28;4.97;;;;;;;4.83;100.00;102684.31;6144057;23;20017;-75
2022/11/12 08:18:44;;;;;;;5.10;4.80;;;;;;;5.00;100.00;102698.22;6141546;23;20036;-75
2022/11/12 08:21:15;;;;;;;5.95;5.60;;;;;;;5.34;100.00;102736.50;6106929;23;20042;-75
2022/11/12 08:23:41;;;;;;;6.50;5.90;;;;;;;5.68;100.00;102776.50;6171329;23;20027;-76
2022/11/12 08:26:11;;;;;;;5.45;5.15;;;;;;;5.41;100.00;102704.38;6114816;23;20029;-75
2022/11/12 08:28:38;;;;;;;4.97;4.60;;;;;;;5.65;100.00;102689.66;6177472;23;20024;-76
2022/11/12 08:31:10;;;;;;;5.18;4.78;;;;;;;6.15;100.00;102764.38;6117139;23;20103;-75
2022/11/12 08:33:38;;;;;;;5.63;5.18;;;;;;;6.24;100.00;102761.78;6177787;23;20036;-75
2022/11/12 08:36:06;;;;;;;5.93;5.45;;;;;;;5.97;100.00;102682.75;6106627;23;20033;-77
2022/11/12 08:38:33;;;;;;;6.18;5.60;;;;;;;5.96;100.00;102660.16;6177542;23;20113;-75
2022/11/12 08:41:01;;;;;;;5.40;5.00;;;;;;;6.56;100.00;102734.78;6125503;23;20027;-74
2022/11/12 08:43:27;;;;;;;6.13;5.63;;;;;;;6.50;100.00;102711.31;6168919;23;20097;-74
2022/11/12 08:45:58;;;;;;;6.15;5.57;;;;;;;5.60;100.00;102529.03;6118752;23;20021;-74
2022/11/12 08:48:26;;;;;;;5.28;4.93;;;;;;;6.49;100.00;102657.41;6171522;23;20076;-74
2022/11/12 08:50:53;;;;;;;8.18;5.63;;;;;;;6.47;100.00;102630.47;6139973;23;20025;-76
2022/11/12 08:53:22;;;;;;;5.18;4.88;;;;;;;7.11;100.00;102752.84;6149313;23;20289;-75
2022/11/12 08:55:52;;;;;;;5.50;5.07;;;;;;;7.21;100.00;102730.16;6149338;23;20021;-76
2022/11/12 08:58:19;;;;;;;6.18;5.25;;;;;;;6.97;100.00;102676.31;6137891;23;20176;-76
2022/11/12 09:00:45;;;;;;;5.90;5.47;;;;;;;6.84;100.00;102649.44;6177439;23;20749;-75
2022/11/12 09:03:14;;;;;;;5.45;4.95;;;;;;;6.84;100.00;102643.34;6137683;23;20025;-75
2022/11/12 09:05:41;;;;;;;5.00;4.65;;;;;;;7.52;100.00;102741.31;6176269;23;20058;-76
2022/11/12 09:08:13;;;;;;;7.82;5.07;;;;;;;7.67;100.00;102760.38;6133111;23;20033;-75
2022/11/12 09:10:42;;;;;;;5.35;4.85;;;;;;;7.79;100.00;102752.44;6179104;23;20872;-75
2022/11/12 09:13:09;;;;;;;5.75;5.25;;;;;;;7.82;100.00;102755.03;6136853;23;20031;-75
2022/11/12 09:15:35;;;;;;;17.88;5.30;;;;;;;7.84;100.00;102768.06;6120440;23;20652;-75
2022/11/12 09:18:10;;;;;;;5.47;5.07;;;;;;;7.69;100.00;102708.94;6140186;23;20025;-75
2022/11/12 09:20:37;;;;;;;5.30;4.90;;;;;;;7.19;100.00;102602.19;6171131;23;20047;-77
2022/11/12 09:23:09;;;;;;;5.47;5.07;;;;;;;8.22;100.00;102756.41;6129756;23;20111;-75
2022/11/12 09:25:36;;;;;;;20.13;5.45;;;;;;;8.07;100.00;102720.84;6175280;23;20093;-75
2022/11/12 09:28:11;;;;;;;9.15;5.00;;;;;;;8.11;100.00;102714.69;6081728;23;20577;-76
2022/11/12 09:30:42;;;;;;;5.70;5.30;;;;;;;8.37;100.00;102730.97;6173267;23;20028;-75
2022/11/12 09:33:08;;;;;;;5.85;5.38;;;;;;;8.54;100.00;102761.41;6126612;23;20041;-76
2022/11/12 09:35:35;;;;;;;5.97;5.25;;;;;;;8.64;100.00;102760.41;6170442;23;20025;-73
2022/11/12 09:38:01;;;;;;;5.93;5.40;;;;;;;8.62;100.00;102746.47;6114508;23;20025;-73
2022/11/12 09:40:51;;;;;;;5.40;5.00;;;;;;;8.75;100.00;102757.66;6167397;23;20024;-72
2022/11/12 09:43:24;;;;;;;6.15;5.18;;;;;;;8.47;100.00;102712.63;6111720;23;20033;-73
2022/11/12 09:45:52;;;;;;;5.47;5.07;;;;;;;8.89;100.00;102755.75;6170073;23;20021;-73
2022/11/12 09:48:46;;;;;;;5.95;5.55;;;;;;;9.09;100.00;102757.25;6110929;23;20582;-73
2022/11/12 09:51:23;;;;;;;5.68;5.25;;;;;;;9.21;100.00;102762.34;6175633;23;20399;-75
2022/11/12 09:54:10;;;;;;;5.70;4.63;;;;;;;9.27;100.00;102746.53;6136804;23;20036;-75
2022/11/12 09:56:36;;;;;;;5.05;4.75;;;;;;;8.17;100.00;102523.72;6174495;23;20050;-75
2022/11/12 09:59:02;;;;;;;6.20;5.70;;;;;;;8.47;100.00;102538.16;6125577;23;20021;-75
2022/11/12 10:01:57;;;;;;;5.28;4.97;;;;;;;9.59;100.00;102717.22;6167031;23;20047;-75
2022/11/12 10:04:41;;;;;;;5.43;5.00;;;;;;;10.06;98.83;102750.56;6098037;23;20745;-75
2022/11/12 10:07:35;;;;;;;5.47;5.15;;;;;;;10.01;96.70;102747.16;6171772;23;20120;-75
2022/11/12 10:10:14;;;;;;;6.68;5.13;;;;;;;10.13;96.54;102741.72;6131468;23;20029;-75
2022/11/12 10:12:46;;;;;;;6.43;5.80;;;;;;;10.16;96.40;102737.28;6174250;23;20035;-75
2022/11/12 10:19:04;;;;;;;5.45;5.07;;;;;;;10.07;93.73;102690.22;6140772;23;20389;-76
2022/11/12 10:21:39;;;;;;;5.47;5.07;;;;;;;9.76;93.46;102619.06;6128570;23;20017;-76
2022/11/12 10:24:09;;;;;;;5.80;5.30;;;;;;;10.50;92.61;102710.44;6170350;23;20090;-75
2022/11/12 10:26:37;;;;;;;5.45;5.07;;;;;;;10.66;92.59;102723.25;6092537;23;20041;-75
2022/11/12 10:29:21;;;;;;;5.72;5.30;;;;;;;10.47;92.08;102689.50;6169309;23;20586;-75
2022/11/12 10:31:47;;;;;;;5.45;4.95;;;;;;;10.25;92.29;102644.38;6111583;23;20396;-75
2022/11/12 10:34:14;;;;;;;5.90;5.60;;;;;;;10.90;91.78;102720.09;6160360;23;20032;-75
2022/11/12 10:37:17;;;;;;;5.32;5.03;;;;;;;10.87;90.64;102687.81;6084745;23;20021;-75
2022/11/12 10:39:46;;;;;;;5.38;5.00;;;;;;;10.96;89.29;102691.09;6146773;23;20085;-75
2022/11/12 10:42:15;;;;;;;5.93;5.53;;;;;;;10.74;88.82;102626.78;6110927;23;20038;-75
2022/11/12 10:44:42;;;;;;;5.78;5.40;;;;;;;10.98;89.56;102657.78;6171691;23;20061;-75
2022/11/12 10:47:37;;;;;;;11.38;5.55;;;;;;;11.18;89.73;102669.59;6111316;23;20024;-75
2022/11/12 10:50:06;;;;;;;6.07;5.65;;;;;;;11.41;89.80;102692.72;6173808;23;20017;-74
2022/11/12 10:52:34;;;;;;;6.43;5.82;;;;;;;11.26;89.33;102659.75;6141276;23;20021;-74
2022/11/12 10:55:27;;;;;;;6.00;5.60;;;;;;;11.09;89.47;102623.38;6140612;23;20080;-75
2022/11/12 10:58:12;;;;;;;6.07;5.57;;;;;;;11.43;88.77;102675.13;6169020;23;20025;-75
2022/11/12 11:01:06;;;;;;;6.15;5.55;;;;;;;10.40;88.62;102490.16;6130275;23;20102;-75
2022/11/12 11:03:35;;;;;;;5.95;5.45;;;;;;;11.21;88.58;102640.63;6148073;23;20012;-76
2022/11/12 11:06:17;;;;;;;5.32;5.03;;;;;;;11.57;88.57;102656.41;6118878;23;20640;-75
2022/11/12 11:08:49;;;;;;;5.63;5.32;;;;;;;11.69;88.22;102652.59;6153493;23;20028;-72
2022/11/12 11:11:18;;;;;;;5.68;5.28;;;;;;;11.86;86.86;102657.41;6121612;23;20055;-72
2022/11/12 11:13:47;;;;;;;5.80;5.40;;;;;;;11.90;85.72;102643.31;6153506;23;20032;-72
2022/11/12 11:16:26;;;;;;;5.80;5.40;;;;;;;11.95;85.79;102637.03;6128480;23;20020;-75
2022/11/12 11:18:58;;;;;;;5.68;5.30;;;;;;;11.89;84.56;102592.47;6180747;23;20024;-75
2022/11/12 11:21:36;;;;;;;5.30;4.93;;;;;;;11.88;84.45;102595.94;6134063;23;20021;-75
2022/11/12 11:24:28;;;;;;;10.45;5.70;;;;;;;12.25;83.94;102629.19;6173373;23;20072;-75
2022/11/12 11:27:11;;;;;;;6.50;5.72;;;;;;;12.34;83.09;102633.31;6118197;23;20021;-75
2022/11/12 11:29:50;;;;;;;6.53;5.90;;;;;;;12.43;83.68;102632.19;6168001;23;20559;-75
2022/11/12 11:32:35;;;;;;;5.75;5.32;;;;;;;12.64;82.38;102631.56;6124531;23;20092;-76
2022/11/12 11:35:16;;;;;;;8.48;5.75;;;;;;;12.75;81.27;102618.94;6168087;23;20028;-75
2022/11/12 11:38:00;;;;;;;6.20;5.60;;;;;;;12.35;81.07;102533.22;6143096;23;20029;-75
2022/11/12 11:40:30;;;;;;;6.32;5.82;;;;;;;12.77;80.61;102588.13;6152297;23;20016;-75
2022/11/12 11:43:10;;;;;;;5.57;5.18;;;;;;;13.02;80.32;102595.25;6143916;23;20005;-75
2022/11/12 11:46:07;;;;;;;6.13;5.72;;;;;;;13.25;78.72;102594.53;6169599;23;20017;-76
2022/11/12 11:48:48;;;;;;;6.00;5.70;;;;;;;13.04;78.94;102553.91;6146408;23;20039;-76
2022/11/12 11:51:39;;;;;;;5.60;5.20;;;;;;;13.40;78.50;102584.41;6143654;23;20037;-76
2022/11/12 11:54:12;;;;;;;5.60;5.22;;;;;;;13.37;78.49;102577.47;6172549;23;20047;-76
2022/11/12 11:56:43;;;;;;;6.32;5.53;;;;;;;13.42;78.56;102578.16;6144414;23;20040;-76
2022/11/12 11:59:21;;;;;;;6.07;5.47;;;;;;;13.43;77.61;102557.91;6175137;23;20182;-76
2022/11/12 12:02:09;;;;;;;8.50;5.53;;;;;;;12.71;77.86;102440.81;6092430;23;20037;-76
2022/11/12 12:04:50;;;;;;;6.90;6.05;;;;;;;13.46;76.87;102563.09;6169615;23;20020;-76
2022/11/12 12:07:40;;;;;;;6.10;5.70;;;;;;;13.49;76.95;102562.97;6122445;23;20017;-76